Time;durP1;ratioP1;P1;durP2;ratioP2;P2;SDS_P1;SDS_P2;PMS_P1;PMS_P2;Temp;Humidity;BMP_temperature;BMP_pressure;BME280_temperature;BME280_humidity;BME280_pressure;Samples;Min_cycle;Max_cycle;Signal;HPM_P1;HPM_P2
2021/07/28 00:01:20;;;;;;;11.23;9.33;;;;;;;22.54;65.27;96437.38;5071581;28;20449;-66
2021/07/28 00:03:46;;;;;;;10.67;8.17;;;;;;;22.86;64.77;96426.81;5051499;28;20691;-66
2021/07/28 00:06:22;;;;;;;9.80;7.90;;;;;;;23.12;63.29;96421.75;5059546;28;20808;-68
2021/07/28 00:08:48;;;;;;;8.30;7.30;;;;;;;23.40;61.50;96422.59;5065773;28;20735;-66
2021/07/28 00:11:15;;;;;;;7.80;7.00;;;;;;;23.55;62.13;96421.09;5070898;28;20507;-67
2021/07/28 00:13:40;;;;;;;9.10;7.30;;;;;;;23.58;61.36;96413.38;5070961;28;20450;-64
2021/07/28 00:16:11;;;;;;;8.73;7.00;;;;;;;23.78;60.34;96415.41;5071318;28;20425;-65
2021/07/28 00:19:21;;;;;;;7.00;6.30;;;;;;;23.81;60.48;96415.97;5069007;28;20209;-68
2021/07/28 00:24:09;;;;;;;7.60;6.83;;;;;;;23.78;60.72;96412.72;5070787;28;20420;-66
2021/07/28 00:26:35;;;;;;;6.77;6.07;;;;;;;24.17;59.78;96421.56;5071305;28;20433;-67
2021/07/28 00:29:01;;;;;;;6.20;5.70;;;;;;;24.38;58.56;96428.63;5069225;28;20183;-66
2021/07/28 00:31:26;;;;;;;9.00;6.57;;;;;;;24.38;58.07;96431.31;5066166;28;20273;-66
2021/07/28 00:33:52;;;;;;;9.10;6.97;;;;;;;23.67;60.78;96416.38;5055102;28;20181;-66
2021/07/28 00:36:17;;;;;;;8.50;7.40;;;;;;;23.08;63.01;96425.97;5071435;28;20194;-66
2021/07/28 00:38:43;;;;;;;7.30;6.60;;;;;;;23.56;61.39;96436.09;5056887;28;21021;-66
2021/07/28 00:41:08;;;;;;;9.63;7.17;;;;;;;22.63;64.20;96440.44;5070931;28;20301;-66
2021/07/28 00:43:35;;;;;;;9.13;8.03;;;;;;;22.96;63.05;96438.66;5070939;28;20642;-67
2021/07/28 00:46:01;;;;;;;8.00;6.97;;;;;;;22.61;65.50;96443.38;5069802;28;20258;-65
2021/07/28 00:48:27;;;;;;;8.53;7.63;;;;;;;22.52;64.45;96439.50;5055521;28;20914;-67
2021/07/28 00:50:55;;;;;;;8.00;7.20;;;;;;;22.57;65.79;96439.56;5071255;28;20420;-66
2021/07/28 00:53:21;;;;;;;8.17;7.30;;;;;;;22.46;64.79;96443.97;5070981;28;20190;-65
2021/07/28 00:55:54;;;;;;;11.57;6.40;;;;;;;22.81;64.84;96432.09;5069551;28;20439;-67
2021/07/28 00:58:21;;;;;;;8.50;7.60;;;;;;;22.72;63.09;96449.63;5070634;28;20816;-66
2021/07/28 01:00:48;;;;;;;9.00;7.03;;;;;;;22.55;66.05;96449.69;5072921;28;20531;-67
2021/07/28 01:03:14;;;;;;;9.60;7.47;;;;;;;22.64;64.35;96439.38;5058825;28;20435;-67
2021/07/28 01:05:40;;;;;;;12.90;6.90;;;;;;;22.92;63.31;96442.91;5054578;28;20422;-66
2021/07/28 01:08:08;;;;;;;9.50;8.43;;;;;;;22.50;64.07;96438.94;5063410;28;20499;-66
2021/07/28 01:10:34;;;;;;;7.90;7.10;;;;;;;22.49;64.70;96440.81;5073382;28;20460;-66
2021/07/28 01:13:02;;;;;;;8.83;7.93;;;;;;;22.89;63.46;96440.75;5066251;28;20468;-66
2021/07/28 01:18:01;;;;;;;9.10;7.90;;;;;;;21.94;66.53;96451.22;5073648;28;20427;-65
2021/07/28 01:20:42;;;;;;;12.53;7.97;;;;;;;21.86;67.16;96448.16;5040228;28;20492;-67
2021/07/28 01:23:21;;;;;;;10.83;7.70;;;;;;;22.09;64.89;96426.66;5074065;28;20420;-66
2021/07/28 01:25:47;;;;;;;8.70;7.80;;;;;;;22.01;67.79;96442.25;5074217;28;20927;-67
2021/07/28 01:28:13;;;;;;;9.40;8.40;;;;;;;21.49;69.17;96442.19;5071106;28;20465;-67
2021/07/28 01:30:39;;;;;;;10.90;8.63;;;;;;;21.91;67.46;96446.38;5070324;28;20425;-67
2021/07/28 01:33:05;;;;;;;8.53;7.73;;;;;;;22.12;67.73;96440.53;5058675;28;20225;-67
2021/07/28 01:35:31;;;;;;;11.30;7.43;;;;;;;22.46;65.54;96440.50;5072457;28;20508;-67
2021/07/28 01:37:59;;;;;;;8.23;7.43;;;;;;;22.57;65.63;96442.25;5061435;28;20184;-69
2021/07/28 01:40:24;;;;;;;9.00;8.10;;;;;;;22.39;65.90;96437.97;5073047;28;20409;-68
2021/07/28 01:42:50;;;;;;;8.00;7.30;;;;;;;22.77;64.77;96441.69;5073879;28;20441;-67
2021/07/28 01:45:17;;;;;;;7.80;7.00;;;;;;;22.81;63.56;96436.66;5071193;28;20189;-67
2021/07/28 01:47:43;;;;;;;8.50;7.70;;;;;;;22.55;65.83;96439.81;5067994;28;20210;-67
2021/07/28 01:50:09;;;;;;;8.37;7.50;;;;;;;22.61;64.11;96437.19;5073765;28;20789;-67
2021/07/28 01:52:36;;;;;;;8.27;7.13;;;;;;;22.29;65.20;96433.31;5073708;28;21014;-67
2021/07/28 01:55:03;;;;;;;9.40;6.60;;;;;;;21.84;65.36;96437.72;5073180;28;20421;-67
2021/07/28 01:57:28;;;;;;;7.70;6.80;;;;;;;21.90;65.25;96436.78;5073543;28;20451;-67
2021/07/28 01:59:54;;;;;;;6.80;6.20;;;;;;;21.89;67.18;96427.16;5069859;28;20535;-67
2021/07/28 02:02:20;;;;;;;7.00;5.70;;;;;;;22.21;65.55;96434.53;5067823;28;20275;-66
2021/07/28 02:04:45;;;;;;;7.00;5.73;;;;;;;22.77;63.01;96427.50;5049801;28;20264;-67
2021/07/28 02:07:11;;;;;;;6.10;5.53;;;;;;;22.89;61.49;96428.19;5053325;28;20269;-67
2021/07/28 02:09:37;;;;;;;5.90;5.40;;;;;;;22.77;62.32;96428.34;5066411;28;20194;-67
2021/07/28 02:12:02;;;;;;;6.67;5.97;;;;;;;22.08;63.92;96418.88;5072727;28;20292;-67
2021/07/28 02:14:28;;;;;;;10.30;6.07;;;;;;;21.48;67.08;96415.81;5072857;28;20711;-68
2021/07/28 02:16:53;;;;;;;6.43;5.80;;;;;;;21.32;68.30;96406.75;5066076;28;20269;-68
2021/07/28 02:19:19;;;;;;;7.80;5.57;;;;;;;21.21;67.54;96411.09;5071623;28;20198;-67
2021/07/28 02:21:44;;;;;;;9.00;6.30;;;;;;;21.03;66.91;96425.41;5070651;28;20202;-67
2021/07/28 02:24:10;;;;;;;6.63;5.97;;;;;;;21.13;67.52;96422.13;5070800;28;20196;-66
2021/07/28 02:26:36;;;;;;;7.77;5.90;;;;;;;21.51;65.27;96423.31;5073214;28;20185;-67
2021/07/28 02:29:01;;;;;;;5.93;5.43;;;;;;;21.64;66.08;96419.56;5070517;28;20183;-67
2021/07/28 02:31:27;;;;;;;5.90;5.30;;;;;;;21.70;63.78;96415.09;5068215;28;20221;-67
2021/07/28 02:33:52;;;;;;;7.33;5.67;;;;;;;21.67;64.17;96420.94;5057268;28;20224;-67
2021/07/28 02:36:18;;;;;;;6.23;5.63;;;;;;;21.83;64.08;96419.31;5072972;28;20197;-67
2021/07/28 02:38:43;;;;;;;6.73;5.27;;;;;;;22.15;64.40;96422.19;5059283;28;20260;-66
2021/07/28 02:41:09;;;;;;;5.47;4.97;;;;;;;22.25;63.83;96410.81;5072781;28;20213;-66
2021/07/28 02:43:35;;;;;;;6.57;5.87;;;;;;;22.15;63.03;96410.69;5073007;28;20189;-68
2021/07/28 02:46:00;;;;;;;7.07;5.13;;;;;;;22.33;63.74;96409.59;5070655;28;20178;-67
2021/07/28 02:48:26;;;;;;;5.27;4.77;;;;;;;22.73;62.13;96421.06;5072623;28;20182;-67
2021/07/28 02:50:51;;;;;;;8.53;5.07;;;;;;;23.12;60.23;96411.06;5072945;28;20197;-67
2021/07/28 02:53:20;;;;;;;8.30;5.50;;;;;;;23.28;59.65;96413.91;5071694;28;20221;-66
2021/07/28 02:55:46;;;;;;;7.53;5.03;;;;;;;23.13;59.32;96412.69;5073216;28;20269;-67
2021/07/28 02:58:11;;;;;;;7.03;5.20;;;;;;;23.34;59.28;96410.22;5072665;28;20515;-66
2021/07/28 03:00:37;;;;;;;6.33;5.50;;;;;;;23.32;60.03;96415.00;5073164;28;20190;-67
2021/07/28 03:03:03;;;;;;;6.80;6.13;;;;;;;22.89;60.21;96406.00;5050045;28;20262;-67
2021/07/28 03:05:28;;;;;;;6.00;5.40;;;;;;;23.25;59.92;96403.72;5054221;28;20597;-66
2021/07/28 03:07:54;;;;;;;6.50;5.17;;;;;;;23.15;60.71;96402.53;5059801;28;20649;-67
2021/07/28 03:10:19;;;;;;;5.90;5.40;;;;;;;22.89;61.25;96408.69;5072318;28;20206;-66
2021/07/28 03:12:45;;;;;;;8.63;5.70;;;;;;;23.24;59.69;96394.91;5072062;28;20202;-67
2021/07/28 03:15:11;;;;;;;5.87;5.37;;;;;;;23.28;59.63;96403.22;5070638;28;20660;-66
2021/07/28 03:17:36;;;;;;;7.10;5.50;;;;;;;23.26;59.76;96406.13;5063872;28;20235;-67
2021/07/28 03:20:02;;;;;;;7.47;5.67;;;;;;;23.28;59.30;96404.03;5071538;28;20206;-66
2021/07/28 03:22:28;;;;;;;6.13;5.53;;;;;;;23.25;60.19;96401.84;5071453;28;20673;-66
2021/07/28 03:24:53;;;;;;;6.23;4.87;;;;;;;23.54;59.02;96395.44;5071682;28;20185;-67
2021/07/28 03:27:19;;;;;;;6.70;5.23;;;;;;;23.87;57.44;96402.34;5071648;28;20182;-66
2021/07/28 03:29:45;;;;;;;5.83;5.20;;;;;;;23.18;59.94;96403.91;5071627;28;20625;-67
2021/07/28 03:32:10;;;;;;;5.83;5.23;;;;;;;22.70;61.17;96409.00;5070345;28;20203;-67
2021/07/28 03:34:37;;;;;;;78.27;21.23;;;;;;;22.17;62.33;96403.25;5058149;28;20219;-66
2021/07/28 03:37:04;;;;;;;14.50;7.60;;;;;;;22.31;63.77;96401.03;5071760;28;20591;-66
2021/07/28 03:39:29;;;;;;;22.47;9.50;;;;;;;22.96;60.30;96406.63;5057923;28;20471;-67
2021/07/28 03:41:55;;;;;;;22.10;9.23;;;;;;;23.56;58.44;96404.00;5071447;28;20456;-67
2021/07/28 03:44:21;;;;;;;14.90;7.70;;;;;;;23.80;56.25;96414.34;5071076;28;20220;-67
2021/07/28 03:46:56;;;;;;;19.37;8.17;;;;;;;23.49;58.75;96414.09;5071551;28;20181;-67
2021/07/28 03:49:22;;;;;;;11.17;5.77;;;;;;;22.94;58.89;96419.41;5047357;28;20660;-67
2021/07/28 03:51:47;;;;;;;20.33;8.33;;;;;;;22.96;60.53;96414.63;5057251;28;20497;-66
2021/07/28 03:54:13;;;;;;;12.97;8.07;;;;;;;23.57;57.84;96409.09;5052216;28;20753;-66
2021/07/28 03:56:38;;;;;;;10.83;6.30;;;;;;;23.98;56.93;96411.28;5055457;28;20178;-67
2021/07/28 03:59:04;;;;;;;10.03;6.43;;;;;;;24.08;56.27;96413.22;5070699;28;20202;-67
2021/07/28 04:01:30;;;;;;;10.00;5.53;;;;;;;24.18;55.25;96418.63;5051474;28;20217;-66
2021/07/28 04:03:55;;;;;;;7.47;5.47;;;;;;;24.13;56.47;96425.81;5050930;28;20681;-67
2021/07/28 04:06:21;;;;;;;8.50;5.30;;;;;;;24.13;56.50;96431.16;5070357;28;20186;-67
2021/07/28 04:08:46;;;;;;;9.53;5.07;;;;;;;24.06;56.66;96418.00;5064969;28;20199;-66
2021/07/28 04:11:12;;;;;;;6.13;5.30;;;;;;;24.16;55.64;96425.31;5049672;28;20210;-67
2021/07/28 04:13:37;;;;;;;8.80;5.10;;;;;;;24.33;55.22;96428.59;5050062;28;20669;-66
2021/07/28 04:16:03;;;;;;;5.43;4.53;;;;;;;24.26;55.31;96421.88;5050644;28;20187;-66
2021/07/28 04:18:29;;;;;;;7.13;4.60;;;;;;;24.35;55.32;96421.13;5046445;28;20802;-66
2021/07/28 04:20:55;;;;;;;4.93;4.50;;;;;;;24.29;55.41;96411.47;5050415;28;20282;-67
2021/07/28 04:23:20;;;;;;;5.67;5.10;;;;;;;24.37;54.75;96410.16;5055301;28;20561;-65
2021/07/28 04:25:46;;;;;;;5.63;4.77;;;;;;;24.42;54.62;96428.13;5050986;28;20175;-66
2021/07/28 04:28:12;;;;;;;6.23;5.60;;;;;;;23.92;55.23;96431.81;5049892;28;20548;-67
2021/07/28 04:30:37;;;;;;;4.97;4.57;;;;;;;23.73;57.30;96431.41;5052344;28;20187;-66
2021/07/28 04:33:03;;;;;;;6.47;5.10;;;;;;;23.75;57.14;96433.84;5053315;28;20293;-66
2021/07/28 04:35:28;;;;;;;6.60;6.00;;;;;;;23.79;56.94;96429.56;5049954;28;20653;-67
2021/07/28 04:37:54;;;;;;;8.43;5.90;;;;;;;23.75;56.18;96426.59;5044753;28;20365;-67
2021/07/28 04:40:20;;;;;;;6.07;5.47;;;;;;;23.40;58.18;96425.25;5050723;28;20198;-66
2021/07/28 04:42:45;;;;;;;6.20;4.97;;;;;;;23.70;57.51;96405.16;5046915;28;20211;-67
2021/07/28 04:45:11;;;;;;;5.60;5.10;;;;;;;23.52;57.08;96430.41;5050072;28;20222;-66
2021/07/28 04:47:37;;;;;;;7.27;6.20;;;;;;;23.46;57.72;96442.94;5058259;28;20179;-67
2021/07/28 04:50:02;;;;;;;6.37;5.30;;;;;;;23.46;58.48;96420.75;5040239;28;20179;-66
2021/07/28 04:52:28;;;;;;;5.60;4.90;;;;;;;23.60;57.86;96395.22;5050463;28;20199;-67
2021/07/28 04:54:53;;;;;;;8.33;5.70;;;;;;;23.76;57.05;96385.44;5050184;28;20179;-68
2021/07/28 04:57:19;;;;;;;9.00;5.90;;;;;;;23.59;56.04;96404.28;5050397;28;20190;-66
2021/07/28 04:59:45;;;;;;;10.20;5.40;;;;;;;22.96;58.27;96418.13;5049447;28;20580;-67
2021/07/28 05:02:10;;;;;;;9.10;5.67;;;;;;;21.95;61.07;96433.38;5051320;28;20218;-67
2021/07/28 05:04:36;;;;;;;10.30;6.30;;;;;;;21.89;61.96;96437.81;5057006;28;20528;-66
2021/07/28 05:07:02;;;;;;;8.73;5.30;;;;;;;22.01;63.05;96429.72;5066783;28;20186;-68
2021/07/28 05:09:28;;;;;;;7.23;5.30;;;;;;;22.64;61.01;96429.50;5049844;28;20179;-68
2021/07/28 05:11:53;;;;;;;8.33;5.90;;;;;;;22.76;59.33;96444.59;5049333;28;20492;-67
2021/07/28 05:14:19;;;;;;;9.13;5.93;;;;;;;22.85;59.93;96443.09;5052524;28;20198;-67
2021/07/28 05:16:45;;;;;;;6.43;5.70;;;;;;;23.16;59.79;96438.91;5062982;28;20182;-67
2021/07/28 05:19:10;;;;;;;10.00;5.17;;;;;;;23.43;58.76;96435.44;5044310;28;20213;-68
2021/07/28 05:21:36;;;;;;;7.00;5.83;;;;;;;23.58;56.98;96436.63;5050364;28;20360;-68
2021/07/28 05:24:01;;;;;;;13.50;5.20;;;;;;;23.70;57.78;96439.94;5049106;28;20244;-68
2021/07/28 05:26:27;;;;;;;6.67;5.53;;;;;;;23.60;56.68;96443.34;5050477;28;20179;-67
2021/07/28 05:28:52;;;;;;;7.90;5.50;;;;;;;23.36;57.05;96448.19;5050269;28;20622;-67
2021/07/28 05:31:18;;;;;;;7.03;5.73;;;;;;;22.80;59.12;96451.88;5053971;28;20217;-67
2021/07/28 05:33:44;;;;;;;20.23;8.17;;;;;;;22.75;59.55;96443.78;5049379;28;20182;-68
2021/07/28 05:36:09;;;;;;;8.43;6.50;;;;;;;22.71;59.33;96448.00;5050273;28;20751;-67
2021/07/28 05:38:35;;;;;;;11.63;6.20;;;;;;;22.03;61.96;96448.16;5043472;28;20207;-68
2021/07/28 05:41:04;;;;;;;7.90;6.13;;;;;;;22.22;60.77;96440.69;5041455;28;20199;-68
2021/07/28 05:43:30;;;;;;;7.40;6.20;;;;;;;21.66;62.85;96443.31;5042806;28;20179;-68
2021/07/28 05:45:55;;;;;;;9.07;5.73;;;;;;;22.46;61.48;96451.97;5050829;28;20418;-68
2021/07/28 05:48:21;;;;;;;7.67;5.73;;;;;;;22.87;60.64;96451.69;5054050;28;20225;-68
2021/07/28 05:50:47;;;;;;;7.90;5.70;;;;;;;22.29;60.13;96446.66;5060187;28;20206;-69
2021/07/28 05:53:12;;;;;;;7.03;5.33;;;;;;;21.69;62.26;96456.16;5063652;28;20200;-69
2021/07/28 05:55:38;;;;;;;6.60;5.53;;;;;;;22.45;60.14;96450.34;5053773;28;20269;-68
2021/07/28 05:58:03;;;;;;;7.90;6.03;;;;;;;22.23;59.87;96443.09;5060160;28;20178;-67
2021/07/28 06:00:29;;;;;;;9.93;6.20;;;;;;;22.44;61.45;96440.72;5072138;28;20209;-67
2021/07/28 06:02:55;;;;;;;6.23;5.63;;;;;;;22.91;60.14;96452.00;5073991;28;20652;-67
2021/07/28 06:05:20;;;;;;;7.50;5.30;;;;;;;22.57;62.69;96444.09;5064398;28;20743;-69
2021/07/28 06:07:46;;;;;;;9.67;5.40;;;;;;;23.02;58.51;96448.38;5053613;28;20179;-68
2021/07/28 06:10:14;;;;;;;8.77;5.80;;;;;;;23.34;58.96;96444.97;5071532;28;20190;-70
2021/07/28 06:12:39;;;;;;;10.77;5.60;;;;;;;23.64;57.56;96438.28;5071984;28;20198;-68
2021/07/28 06:15:05;;;;;;;7.20;5.80;;;;;;;23.86;56.09;96448.06;5068219;28;20939;-67
2021/07/28 06:17:31;;;;;;;5.43;4.93;;;;;;;23.97;56.12;96441.75;5073583;28;20174;-67
2021/07/28 06:19:57;;;;;;;6.97;5.20;;;;;;;24.00;55.76;96446.59;5072944;28;20548;-67
2021/07/28 06:22:22;;;;;;;5.13;4.63;;;;;;;23.88;55.20;96448.63;5073154;28;20210;-68
2021/07/28 06:24:48;;;;;;;10.17;5.97;;;;;;;23.77;56.23;96463.78;5073368;28;20226;-67
2021/07/28 06:27:13;;;;;;;10.70;5.67;;;;;;;23.73;58.58;96468.06;5058324;28;20195;-67
2021/07/28 06:29:39;;;;;;;9.37;5.40;;;;;;;23.48;57.21;96456.06;5072859;28;20182;-67
2021/07/28 06:32:05;;;;;;;9.70;5.70;;;;;;;23.42;58.39;96460.56;5066199;28;20227;-66
2021/07/28 06:34:31;;;;;;;11.37;6.37;;;;;;;23.49;60.89;96457.69;5073010;28;20526;-67
2021/07/28 06:36:56;;;;;;;8.20;6.10;;;;;;;23.64;58.09;96475.72;5072936;28;20663;-66
2021/07/28 06:39:22;;;;;;;14.20;6.50;;;;;;;23.39;58.04;96474.44;5058937;28;20654;-67
2021/07/28 06:41:47;;;;;;;6.63;5.10;;;;;;;22.96;59.32;96476.88;5072701;28;20448;-68
2021/07/28 06:44:13;;;;;;;7.33;6.33;;;;;;;22.50;60.74;96468.28;5070501;28;20697;-70
2021/07/28 06:46:38;;;;;;;6.83;5.90;;;;;;;22.06;61.70;96447.63;5073214;28;20190;-68
2021/07/28 06:49:04;;;;;;;7.43;6.03;;;;;;;22.16;61.84;96447.81;5071151;28;20322;-69
2021/07/28 06:51:31;;;;;;;12.37;7.93;;;;;;;22.02;63.27;96457.19;5066031;28;20210;-70
2021/07/28 06:53:57;;;;;;;22.43;7.83;;;;;;;21.92;63.24;96460.53;5063362;28;20187;-70
2021/07/28 06:56:22;;;;;;;9.40;6.20;;;;;;;21.23;65.76;96459.63;5070658;28;20420;-69
2021/07/28 06:58:48;;;;;;;10.33;6.30;;;;;;;20.50;68.25;96475.19;5060387;28;20206;-70
2021/07/28 07:01:13;;;;;;;9.37;6.33;;;;;;;21.14;66.40;96469.84;5062982;28;20207;-70
2021/07/28 07:03:39;;;;;;;11.47;6.50;;;;;;;21.10;67.12;96478.53;5071233;28;20228;-69
2021/07/28 07:06:05;;;;;;;9.50;6.93;;;;;;;21.19;66.49;96485.09;5072642;28;20581;-69
2021/07/28 07:08:30;;;;;;;10.03;6.53;;;;;;;21.30;66.23;96486.91;5072909;28;20190;-69
2021/07/28 07:10:56;;;;;;;16.13;7.07;;;;;;;21.42;65.17;96486.06;5072754;28;20202;-68
2021/07/28 07:13:22;;;;;;;7.83;6.57;;;;;;;21.20;65.75;96476.06;5072734;28;20214;-66
2021/07/28 07:15:48;;;;;;;10.60;8.50;;;;;;;21.15;66.38;96490.09;5071433;28;20187;-69
2021/07/28 07:18:13;;;;;;;9.60;6.90;;;;;;;21.30;65.72;96486.13;5071965;28;20193;-68
2021/07/28 07:20:39;;;;;;;8.70;6.90;;;;;;;20.99;66.32;96493.50;5071473;28;20429;-69
2021/07/28 07:23:05;;;;;;;13.13;7.43;;;;;;;20.85;66.86;96492.97;5071843;28;20202;-67
2021/07/28 07:25:30;;;;;;;9.37;7.30;;;;;;;21.23;66.18;96494.25;5064446;28;20269;-67
2021/07/28 07:27:56;;;;;;;8.70;7.00;;;;;;;21.13;66.57;96512.72;5061968;28;20178;-69
2021/07/28 07:30:22;;;;;;;7.37;6.67;;;;;;;21.13;66.98;96488.72;5072315;28;20194;-69
2021/07/28 07:35:32;;;;;;;15.47;8.10;;;;;;;20.58;68.71;96511.28;5071184;28;20413;-70
2021/07/28 07:37:58;;;;;;;8.47;7.57;;;;;;;20.60;67.99;96509.22;5072389;28;20448;-68
2021/07/28 07:40:23;;;;;;;8.07;7.27;;;;;;;20.59;67.71;96510.25;5071933;28;20206;-68
2021/07/28 07:42:49;;;;;;;8.80;7.03;;;;;;;21.01;66.96;96515.41;5072423;28;20673;-67
2021/07/28 07:45:14;;;;;;;7.13;6.43;;;;;;;21.10;66.52;96515.84;5072261;28;20328;-67
2021/07/28 07:47:40;;;;;;;9.80;7.30;;;;;;;20.91;67.04;96512.53;5072307;28;20555;-67
2021/07/28 07:50:07;;;;;;;12.83;7.47;;;;;;;20.79;67.07;96520.56;5071032;28;20189;-68
2021/07/28 07:52:32;;;;;;;9.67;8.03;;;;;;;21.05;66.71;96518.38;5072178;28;20839;-67
2021/07/28 07:54:58;;;;;;;9.17;7.10;;;;;;;21.26;66.08;96519.59;5071877;28;20189;-68
2021/07/28 07:57:24;;;;;;;9.53;8.53;;;;;;;21.39;65.74;96519.31;5059386;28;20413;-67
2021/07/28 07:59:49;;;;;;;9.83;8.83;;;;;;;20.91;67.51;96529.34;5071964;28;20723;-68
2021/07/28 08:02:15;;;;;;;8.47;6.90;;;;;;;21.25;65.93;96531.31;5071654;28;20256;-67
2021/07/28 08:04:40;;;;;;;9.10;7.67;;;;;;;20.90;67.01;96532.22;5061423;28;20186;-67
2021/07/28 08:07:06;;;;;;;7.30;6.50;;;;;;;21.23;65.89;96530.75;5071740;28;20209;-68
2021/07/28 08:09:32;;;;;;;9.43;6.80;;;;;;;21.14;66.27;96525.00;5071352;28;20181;-68
2021/07/28 08:11:58;;;;;;;8.50;7.60;;;;;;;21.47;65.15;96523.47;5070334;28;20238;-68
2021/07/28 08:14:23;;;;;;;8.27;6.53;;;;;;;21.70;65.18;96524.41;5071428;28;20185;-68
2021/07/28 08:16:49;;;;;;;9.13;7.07;;;;;;;21.48;64.75;96531.19;5063290;28;20531;-67
2021/07/28 08:19:14;;;;;;;10.03;8.00;;;;;;;21.51;64.99;96526.44;5070345;28;20216;-67
2021/07/28 08:21:40;;;;;;;9.40;7.40;;;;;;;21.32;64.74;96526.66;5071366;28;20206;-68
2021/07/28 08:24:06;;;;;;;8.50;6.60;;;;;;;21.48;64.60;96528.53;5069481;28;20231;-67
2021/07/28 08:26:31;;;;;;;7.80;6.23;;;;;;;21.66;64.25;96528.63;5070792;28;20281;-67
2021/07/28 08:28:57;;;;;;;7.70;6.23;;;;;;;21.75;64.17;96516.50;5063545;28;20674;-68
2021/07/28 08:31:22;;;;;;;10.17;7.03;;;;;;;21.83;63.66;96517.97;5065322;28;20547;-67
2021/07/28 08:33:48;;;;;;;8.57;7.17;;;;;;;21.62;63.79;96523.78;5071365;28;20206;-67
2021/07/28 08:36:14;;;;;;;12.13;9.10;;;;;;;21.83;62.97;96513.44;5063646;28;20634;-67
2021/07/28 08:38:39;;;;;;;9.70;7.27;;;;;;;21.40;63.32;96509.47;5069934;28;20206;-68
2021/07/28 08:41:05;;;;;;;8.83;7.33;;;;;;;21.59;63.23;96510.91;5071031;28;20201;-66
2021/07/28 08:43:35;;;;;;;8.00;6.50;;;;;;;21.42;63.51;96504.72;5067447;28;20873;-67
2021/07/28 08:46:03;;;;;;;13.80;7.20;;;;;;;21.71;62.63;96504.69;5067580;28;20182;-67
2021/07/28 08:48:31;;;;;;;7.27;6.43;;;;;;;21.80;62.26;96505.91;5069796;28;20781;-67
2021/07/28 08:50:58;;;;;;;7.20;6.50;;;;;;;21.54;62.91;96502.00;5071169;28;20581;-67
2021/07/28 08:53:24;;;;;;;8.90;6.67;;;;;;;21.75;61.58;96495.19;5070354;28;20425;-67
2021/07/28 08:55:56;;;;;;;9.67;6.53;;;;;;;22.07;61.02;96502.63;5046695;28;20452;-67
2021/07/28 08:58:24;;;;;;;6.73;6.03;;;;;;;21.94;61.86;96487.75;5062363;28;20663;-67
2021/07/28 09:00:51;;;;;;;10.07;6.07;;;;;;;22.21;60.98;96493.22;5071286;28;20417;-67
2021/07/28 09:03:17;;;;;;;9.17;6.20;;;;;;;22.36;60.03;96489.16;5070403;28;20573;-67
2021/07/28 09:05:43;;;;;;;8.33;6.80;;;;;;;21.93;60.26;96488.81;5070676;28;20610;-67
2021/07/28 09:08:34;;;;;;;7.37;6.07;;;;;;;22.11;59.46;96484.28;5070702;28;20498;-67
2021/07/28 09:11:00;;;;;;;8.80;7.00;;;;;;;22.69;58.57;96482.97;5062394;28;20417;-67
2021/07/28 09:13:33;;;;;;;8.00;6.70;;;;;;;22.55;58.06;96482.53;5050833;28;20507;-67
2021/07/28 09:16:01;;;;;;;7.17;6.10;;;;;;;22.99;57.14;96486.25;5051052;28;20418;-67
2021/07/28 09:18:29;;;;;;;8.03;5.30;;;;;;;23.01;57.89;96486.81;5053780;28;20516;-67
2021/07/28 09:20:54;;;;;;;12.23;6.20;;;;;;;22.96;56.87;96490.25;5071499;28;20444;-67
2021/07/28 09:23:20;;;;;;;9.17;6.50;;;;;;;23.45;56.63;96499.34;5074686;28;20428;-67
2021/07/28 09:25:52;;;;;;;10.63;7.80;;;;;;;23.99;55.50;96492.38;5074600;28;20190;-68
2021/07/28 09:28:20;;;;;;;6.77;6.07;;;;;;;23.74;55.51;96497.22;5062841;28;20190;-66
2021/07/28 09:30:46;;;;;;;6.10;5.57;;;;;;;23.62;55.46;96497.38;5074152;28;20829;-67
2021/07/28 09:33:11;;;;;;;10.23;5.40;;;;;;;23.60;55.04;96502.16;5072799;28;20547;-66
2021/07/28 09:35:49;;;;;;;5.63;5.13;;;;;;;23.68;54.57;96508.09;5074833;28;20185;-67
2021/07/28 09:38:34;;;;;;;7.20;5.40;;;;;;;23.77;54.02;96509.25;5073043;28;20202;-66
2021/07/28 09:41:23;;;;;;;7.93;5.27;;;;;;;23.72;54.15;96504.66;5062854;28;20463;-67
2021/07/28 09:43:59;;;;;;;8.03;5.30;;;;;;;23.85;53.58;96502.63;5064926;28;20412;-67
2021/07/28 09:46:29;;;;;;;6.63;5.10;;;;;;;24.02;53.08;96508.69;5076073;28;20425;-68
2021/07/28 09:48:56;;;;;;;7.80;5.17;;;;;;;24.14;53.86;96505.84;5084368;28;20433;-67
2021/07/28 09:51:24;;;;;;;5.90;5.13;;;;;;;24.21;53.61;96509.09;5088427;28;20451;-66
2021/07/28 09:53:53;;;;;;;6.03;5.00;;;;;;;24.21;54.02;96506.44;5080570;28;20425;-68
2021/07/28 09:56:31;;;;;;;6.37;5.77;;;;;;;23.65;54.85;96514.78;5078615;28;20416;-67
2021/07/28 09:58:58;;;;;;;7.17;5.23;;;;;;;24.47;53.61;96506.59;5065907;28;20535;-67
2021/07/28 10:01:25;;;;;;;8.20;5.53;;;;;;;24.31;53.47;96507.56;5073874;28;20440;-66
2021/07/28 10:03:52;;;;;;;11.17;5.23;;;;;;;24.46;53.49;96502.31;5072128;28;20425;-67
2021/07/28 10:06:19;;;;;;;5.17;4.67;;;;;;;24.66;51.42;96492.75;5071646;28;20966;-67
2021/07/28 10:08:45;;;;;;;8.30;5.00;;;;;;;25.00;49.60;96501.25;5068134;28;20409;-66
2021/07/28 10:11:13;;;;;;;5.73;4.40;;;;;;;25.30;48.88;96504.28;5073834;28;20490;-67
2021/07/28 10:13:40;;;;;;;8.97;4.60;;;;;;;25.64;48.33;96503.03;5072421;28;20182;-67
2021/07/28 10:16:07;;;;;;;5.07;4.50;;;;;;;24.80;48.59;96495.81;5064011;28;20418;-66
2021/07/28 10:18:33;;;;;;;8.93;5.17;;;;;;;24.42;50.01;96492.38;5071580;28;20425;-66
2021/07/28 10:20:58;;;;;;;6.70;5.57;;;;;;;24.81;49.50;96492.06;5073610;28;20901;-68
2021/07/28 10:23:24;;;;;;;5.37;4.87;;;;;;;24.88;49.13;96492.63;5073725;28;20517;-67
2021/07/28 10:25:50;;;;;;;5.40;4.60;;;;;;;24.59;49.77;96502.91;5068030;28;20179;-67
2021/07/28 10:28:16;;;;;;;7.33;4.60;;;;;;;24.36;50.44;96511.06;5060677;28;20490;-67
2021/07/28 10:30:45;;;;;;;4.90;4.30;;;;;;;24.42;50.33;96503.09;5073505;28;20179;-66
2021/07/28 10:33:27;;;;;;;5.63;4.80;;;;;;;24.54;49.63;96503.69;5071055;28;20480;-66
2021/07/28 10:35:52;;;;;;;6.13;5.23;;;;;;;24.35;50.15;96516.69;5066047;28;20431;-67
2021/07/28 10:38:21;;;;;;;5.03;4.50;;;;;;;23.21;53.12;96522.88;5072954;28;20437;-67
2021/07/28 10:40:59;;;;;;;11.13;4.80;;;;;;;23.94;51.59;96525.22;5072646;28;20197;-66
2021/07/28 10:43:24;;;;;;;4.90;4.17;;;;;;;23.96;51.89;96524.97;5072772;28;20510;-66
2021/07/28 10:45:55;;;;;;;6.27;4.70;;;;;;;24.16;51.02;96524.34;5071540;28;20526;-66
2021/07/28 10:48:36;;;;;;;5.73;4.50;;;;;;;24.38;50.35;96525.00;5071456;28;21151;-66
2021/07/28 10:51:02;;;;;;;5.53;5.00;;;;;;;24.53;51.06;96507.44;5064153;28;20511;-66
2021/07/28 10:53:47;;;;;;;5.67;4.93;;;;;;;24.73;50.10;96511.31;5072512;28;20417;-67
2021/07/28 10:56:12;;;;;;;5.20;4.70;;;;;;;25.06;48.96;96518.16;5072828;28;20621;-67
2021/07/28 10:58:38;;;;;;;5.60;4.30;;;;;;;25.08;48.03;96507.16;5062574;28;20466;-67
2021/07/28 11:01:04;;;;;;;5.53;4.53;;;;;;;24.88;48.44;96500.66;5072490;28;20183;-67
2021/07/28 11:03:30;;;;;;;5.13;4.23;;;;;;;24.31;50.00;96500.34;5072149;28;20178;-67
2021/07/28 11:06:22;;;;;;;11.63;7.70;;;;;;;24.10;49.09;96498.56;5072398;28;20183;-66
2021/07/28 11:08:48;;;;;;;6.83;5.40;;;;;;;24.62;49.15;96499.72;5061251;28;20417;-67
2021/07/28 11:11:21;;;;;;;6.30;5.33;;;;;;;24.50;49.50;96505.28;5070753;28;20861;-66
2021/07/28 11:13:47;;;;;;;5.93;4.90;;;;;;;24.81;49.30;96506.25;5071979;28;20555;-67
2021/07/28 11:16:14;;;;;;;5.10;4.63;;;;;;;25.26;48.44;96504.00;5070400;28;20420;-66
2021/07/28 11:18:48;;;;;;;5.27;4.63;;;;;;;25.52;47.39;96501.41;5071409;28;20254;-67
2021/07/28 11:21:16;;;;;;;5.37;4.87;;;;;;;24.94;48.65;96510.34;5071303;28;20441;-67
2021/07/28 11:23:44;;;;;;;5.57;4.33;;;;;;;25.63;47.34;96512.16;5071952;28;20440;-67
2021/07/28 11:26:24;;;;;;;7.03;5.20;;;;;;;26.04;46.20;96509.50;5069776;28;20983;-68
2021/07/28 11:28:52;;;;;;;6.83;5.00;;;;;;;26.22;44.96;96508.19;5055218;28;20467;-67
2021/07/28 11:31:34;;;;;;;8.30;5.27;;;;;;;26.23;44.39;96509.78;5062194;28;20950;-65
2021/07/28 11:34:10;;;;;;;6.00;4.67;;;;;;;25.88;45.06;96497.97;5063265;28;20477;-67
2021/07/28 11:36:37;;;;;;;9.77;6.37;;;;;;;26.30;43.69;96496.09;5057982;28;20425;-67
2021/07/28 11:39:11;;;;;;;7.27;5.20;;;;;;;26.61;43.34;96491.44;5069825;28;20448;-65